createdAt,value
2023-03-29T00:01:53.815Z,100383.16
2023-03-29T00:04:21.750Z,100373.63
2023-03-29T00:06:50.564Z,100378.97
2023-03-29T00:09:19.949Z,100379.91
2023-03-29T00:11:49.096Z,100380.72
2023-03-29T00:14:16.919Z,100379.75
2023-03-29T00:16:46.877Z,100384.00
2023-03-29T00:19:14.826Z,100381.63
2023-03-29T00:21:42.635Z,100401.34
2023-03-29T00:24:10.394Z,100396.16
2023-03-29T00:26:38.222Z,100394.28
2023-03-29T00:29:07.354Z,100424.06
2023-03-29T00:31:35.006Z,100431.19
2023-03-29T00:34:02.763Z,100435.06
2023-03-29T00:36:30.470Z,100433.28
2023-03-29T00:38:58.174Z,100430.19
2023-03-29T00:41:26.085Z,100423.06
2023-03-29T00:43:59.801Z,100409.16
2023-03-29T00:46:30.945Z,100411.63
2023-03-29T00:49:03.725Z,100415.03
2023-03-29T00:51:35.835Z,100438.88
2023-03-29T00:54:06.596Z,100420.19
2023-03-29T00:56:37.475Z,100433.47
2023-03-29T00:59:07.532Z,100421.84
2023-03-29T01:01:42.948Z,100415.03
2023-03-29T01:04:18.534Z,100410.38
2023-03-29T01:06:49.689Z,100418.28
2023-03-29T01:09:21.108Z,100418.59
2023-03-29T01:11:53.420Z,100422.19
2023-03-29T01:14:28.318Z,100420.88
2023-03-29T01:16:57.500Z,100414.41
2023-03-29T01:19:31.975Z,100407.28
2023-03-29T01:22:06.065Z,100404.38
2023-03-29T01:24:54.067Z,100388.84
2023-03-29T01:27:35.141Z,100407.63
2023-03-29T01:30:06.654Z,100395.47
2023-03-29T01:32:38.357Z,100393.72
2023-03-29T01:35:12.062Z,100390.97
2023-03-29T01:37:44.977Z,100392.09
2023-03-29T01:40:13.183Z,100381.25
2023-03-29T01:42:53.299Z,100372.53
2023-03-29T01:45:25.909Z,100363.44
2023-03-29T01:48:01.130Z,100361.16
2023-03-29T01:50:37.814Z,100359.06
2023-03-29T01:53:10.394Z,100354.69
2023-03-29T01:55:42.535Z,100354.78
2023-03-29T01:58:14.666Z,100323.47
2023-03-29T02:00:43.774Z,100340.19
2023-03-29T02:03:15.072Z,100333.84
2023-03-29T02:05:43.532Z,100329.47
2023-03-29T02:08:14.311Z,100329.00
2023-03-29T02:10:42.229Z,100324.31
2023-03-29T02:13:11.462Z,100314.22
2023-03-29T02:15:39.803Z,100310.22
2023-03-29T02:18:08.182Z,100302.13
2023-03-29T02:20:39.134Z,100300.81
2023-03-29T02:23:14.317Z,100304.22
2023-03-29T02:25:43.769Z,100291.09
2023-03-29T02:28:14.055Z,100293.69
2023-03-29T02:30:51.262Z,100290.94
2023-03-29T02:33:23.957Z,100287.56
2023-03-29T02:35:56.737Z,100285.78
2023-03-29T02:38:27.758Z,100266.81
2023-03-29T02:40:58.027Z,100277.34
2023-03-29T02:43:30.028Z,100272.16
2023-03-29T02:45:58.005Z,100259.53
2023-03-29T02:48:29.355Z,100255.63
2023-03-29T02:51:02.449Z,100253.88
2023-03-29T02:53:35.801Z,100255.16
2023-03-29T02:56:04.480Z,100262.28
2023-03-29T02:58:33.480Z,100263.25
2023-03-29T03:01:03.207Z,100255.31
2023-03-29T03:03:31.848Z,100255.97
2023-03-29T03:06:01.671Z,100248.50
2023-03-29T03:08:29.873Z,100239.28
2023-03-29T03:10:58.241Z,100239.09
2023-03-29T03:13:26.054Z,100228.59
2023-03-29T03:15:55.273Z,100234.75
2023-03-29T03:18:23.390Z,100230.38
2023-03-29T03:20:58.063Z,100230.84
2023-03-29T03:23:26.749Z,100227.91
2023-03-29T03:25:55.235Z,100225.34
2023-03-29T03:28:24.370Z,100219.50
2023-03-29T03:30:52.310Z,100217.88
2023-03-29T03:33:21.494Z,100231.97
2023-03-29T03:35:49.216Z,100218.84
2023-03-29T03:38:16.928Z,100215.97
2023-03-29T03:40:44.908Z,100221.13
2023-03-29T03:43:12.635Z,100221.13
2023-03-29T03:45:40.639Z,100225.78
2023-03-29T03:48:08.748Z,100231.13
2023-03-29T03:50:38.303Z,100230.63
2023-03-29T03:53:05.983Z,100234.84
2023-03-29T03:55:34.501Z,100239.25
2023-03-29T03:58:02.245Z,100235.34
2023-03-29T04:00:29.968Z,100235.03
2023-03-29T04:02:57.741Z,100234.53
2023-03-29T04:05:25.519Z,100233.41
2023-03-29T04:07:56.039Z,100217.53
2023-03-29T04:10:23.828Z,100226.13
2023-03-29T04:12:51.517Z,100200.53
2023-03-29T04:15:20.322Z,100210.41
2023-03-29T04:17:47.926Z,100214.78
2023-03-29T04:20:15.840Z,100214.28
2023-03-29T04:22:43.563Z,100199.72
2023-03-29T04:25:12.693Z,100205.34
2023-03-29T04:27:40.845Z,100203.22
2023-03-29T04:30:09.675Z,100204.72
2023-03-29T04:32:37.254Z,100189.16
2023-03-29T04:35:05.933Z,100192.25
2023-03-29T04:37:34.092Z,100181.38
2023-03-29T04:40:04.878Z,100178.09
2023-03-29T04:42:34.209Z,100186.91
2023-03-29T04:45:02.071Z,100187.06
2023-03-29T04:47:30.080Z,100178.31
2023-03-29T04:49:57.997Z,100180.53
2023-03-29T04:52:26.434Z,100182.16
2023-03-29T04:54:54.171Z,100176.66
2023-03-29T04:57:21.875Z,100183.13
2023-03-29T04:59:51.357Z,100181.97
2023-03-29T05:02:20.524Z,100158.50
2023-03-29T05:04:48.283Z,100173.06
2023-03-29T05:07:17.616Z,100167.56
2023-03-29T05:09:45.316Z,100167.56
2023-03-29T05:12:13.159Z,100146.97
2023-03-29T05:14:41.030Z,100159.41
2023-03-29T05:17:10.116Z,100168.81
2023-03-29T05:19:38.402Z,100163.81
2023-03-29T05:22:06.589Z,100171.25
2023-03-29T05:24:34.472Z,100170.44
2023-03-29T05:27:02.278Z,100177.91
2023-03-29T05:29:32.025Z,100172.66
2023-03-29T05:32:00.503Z,100155.69
2023-03-29T05:34:30.883Z,100151.47
2023-03-29T05:36:59.111Z,100186.06
2023-03-29T05:39:26.944Z,100171.84
2023-03-29T05:41:55.048Z,100184.28
2023-03-29T05:44:23.030Z,100181.25
2023-03-29T05:46:50.736Z,100169.72
2023-03-29T05:49:19.119Z,100176.63
2023-03-29T05:51:48.229Z,100168.00
2023-03-29T05:54:16.464Z,100174.53
2023-03-29T05:56:44.420Z,100169.34
2023-03-29T05:59:13.744Z,100171.56
2023-03-29T06:01:42.638Z,100179.50
2023-03-29T06:04:10.739Z,100174.13
2023-03-29T06:06:38.640Z,100176.91
2023-03-29T06:09:07.915Z,100173.09
2023-03-29T06:11:35.959Z,100180.56
2023-03-29T06:14:03.848Z,100167.91
2023-03-29T06:16:32.679Z,100167.22
2023-03-29T06:19:00.465Z,100171.06
2023-03-29T06:21:28.528Z,100179.41
2023-03-29T06:23:56.331Z,100177.88
2023-03-29T06:26:27.550Z,100167.50
2023-03-29T06:28:55.279Z,100166.81
2023-03-29T06:31:23.170Z,100150.59
2023-03-29T06:33:51.049Z,100145.00
2023-03-29T06:36:20.229Z,100131.50
2023-03-29T06:38:47.923Z,100147.47
2023-03-29T06:41:16.034Z,100154.13
2023-03-29T06:43:45.117Z,100155.66
2023-03-29T06:46:13.403Z,100129.38
2023-03-29T06:48:42.044Z,100137.72
2023-03-29T06:51:09.922Z,100140.63
2023-03-29T06:53:38.058Z,100141.78
2023-03-29T06:56:09.139Z,100136.06
2023-03-29T06:58:37.377Z,100118.94
2023-03-29T07:01:07.480Z,100123.69
2023-03-29T07:03:36.293Z,100115.63
2023-03-29T07:06:09.726Z,100113.03
2023-03-29T07:08:43.289Z,100102.53
2023-03-29T07:11:13.193Z,100094.13
2023-03-29T07:13:42.383Z,100083.53
2023-03-29T07:16:13.791Z,100082.44
2023-03-29T07:18:41.909Z,100083.38
2023-03-29T07:21:10.567Z,100079.88
2023-03-29T07:23:38.308Z,100082.09
2023-03-29T07:26:07.606Z,100081.31
2023-03-29T07:28:37.456Z,100085.44
2023-03-29T07:31:07.631Z,100073.59
2023-03-29T07:33:36.902Z,100044.53
2023-03-29T07:36:06.031Z,100068.81
2023-03-29T07:38:33.756Z,100061.41
2023-03-29T07:41:05.431Z,100066.66
2023-03-29T07:43:34.205Z,100075.84
2023-03-29T07:46:02.668Z,100068.38
2023-03-29T07:48:30.486Z,100067.63
2023-03-29T07:50:59.836Z,100064.03
2023-03-29T07:53:29.613Z,100068.72
2023-03-29T07:55:57.634Z,100067.06
2023-03-29T07:58:25.499Z,100062.34
2023-03-29T08:00:53.231Z,100070.97
2023-03-29T08:03:21.273Z,100076.63
2023-03-29T08:05:48.949Z,100077.34
2023-03-29T08:08:18.095Z,100084.31
2023-03-29T08:10:45.866Z,100070.16
2023-03-29T08:13:13.771Z,100070.34
2023-03-29T08:15:46.160Z,100063.41
2023-03-29T08:18:14.080Z,100063.28
2023-03-29T08:20:42.629Z,100048.47
2023-03-29T08:23:10.777Z,100056.66
2023-03-29T08:25:39.932Z,100053.50
2023-03-29T08:28:07.582Z,100048.31
2023-03-29T08:30:35.342Z,100046.34
2023-03-29T08:33:03.145Z,100041.03
2023-03-29T08:35:31.121Z,100041.88
2023-03-29T08:37:58.856Z,100033.94
2023-03-29T08:40:29.974Z,100029.44
2023-03-29T08:43:15.907Z,100004.63
2023-03-29T08:45:53.143Z,100048.25
2023-03-29T08:48:28.442Z,100052.88
2023-03-29T08:51:01.423Z,100058.47
2023-03-29T08:53:34.688Z,100045.88
2023-03-29T08:56:08.776Z,100058.94
2023-03-29T08:58:39.209Z,100058.19
2023-03-29T09:01:11.327Z,100063.97
2023-03-29T09:03:43.966Z,100053.22
2023-03-29T09:06:13.630Z,100053.22
2023-03-29T09:08:43.459Z,100060.69
2023-03-29T09:11:38.065Z,100057.41
2023-03-29T09:14:26.060Z,100049.06
2023-03-29T09:17:02.140Z,100070.00
2023-03-29T09:19:38.766Z,100048.06
2023-03-29T09:22:17.500Z,100054.34
2023-03-29T09:24:54.592Z,100049.59
2023-03-29T09:27:27.645Z,100033.59
2023-03-29T09:30:08.667Z,100051.63
2023-03-29T09:32:44.507Z,100041.41
2023-03-29T09:35:19.277Z,100032.19
2023-03-29T09:37:49.189Z,100048.03
2023-03-29T09:40:20.563Z,100042.22
2023-03-29T09:42:50.584Z,100042.03
2023-03-29T09:45:19.908Z,100048.25
2023-03-29T09:47:52.034Z,100032.34
2023-03-29T09:50:31.044Z,99978.97
2023-03-29T09:52:59.900Z,100026.59
2023-03-29T09:55:31.094Z,100015.75
2023-03-29T09:58:02.515Z,100015.91
2023-03-29T10:00:31.992Z,100007.69
2023-03-29T10:03:00.349Z,99992.44
2023-03-29T10:05:37.877Z,99990.03
2023-03-29T10:08:19.779Z,99984.19
2023-03-29T10:10:48.629Z,100000.88
2023-03-29T10:13:22.949Z,100011.34
2023-03-29T10:16:04.296Z,100011.75
2023-03-29T10:18:33.796Z,100004.31
2023-03-29T10:21:03.803Z,100004.53
2023-03-29T10:23:34.306Z,100007.72
2023-03-29T10:26:04.204Z,99990.22
2023-03-29T10:28:33.182Z,99973.34
2023-03-29T10:31:06.013Z,99972.53
2023-03-29T10:33:36.992Z,99968.44
2023-03-29T10:36:07.919Z,99980.13
2023-03-29T10:38:37.579Z,99971.44
2023-03-29T10:41:08.040Z,99978.88
2023-03-29T10:43:38.651Z,99969.84
2023-03-29T10:46:13.150Z,99956.16
2023-03-29T10:48:46.258Z,99971.19
2023-03-29T10:51:16.149Z,99973.00
2023-03-29T10:53:44.196Z,99968.19
2023-03-29T10:56:30.726Z,99947.34
2023-03-29T10:59:14.384Z,99913.47
2023-03-29T11:01:49.738Z,99910.91
2023-03-29T11:04:29.432Z,99916.78
2023-03-29T11:07:14.059Z,99920.97
2023-03-29T11:09:51.261Z,99912.75
2023-03-29T11:12:26.472Z,99922.69
2023-03-29T11:15:10.944Z,99893.53
2023-03-29T11:17:52.712Z,99910.28
2023-03-29T11:20:33.824Z,99907.78
2023-03-29T11:23:16.446Z,99917.00
2023-03-29T11:25:54.843Z,99918.25
2023-03-29T11:28:31.307Z,99909.56
2023-03-29T11:31:06.809Z,99902.03
2023-03-29T11:33:51.018Z,99896.91
2023-03-29T11:36:25.164Z,99902.06
2023-03-29T11:39:05.212Z,99891.03
2023-03-29T11:41:36.191Z,99870.28
2023-03-29T11:44:07.476Z,99865.25
2023-03-29T11:46:40.116Z,99844.09
2023-03-29T11:49:16.012Z,99878.31
2023-03-29T11:51:47.190Z,99872.50
2023-03-29T11:54:22.838Z,99873.00
2023-03-29T11:56:55.917Z,99872.59
2023-03-29T11:59:29.645Z,99867.47
2023-03-29T12:02:03.374Z,99863.25
2023-03-29T12:04:38.542Z,99849.81
2023-03-29T12:07:14.126Z,99844.28
2023-03-29T12:09:49.518Z,99823.53
2023-03-29T12:12:25.124Z,99822.72
2023-03-29T12:15:02.456Z,99803.03
2023-03-29T12:17:35.351Z,99786.81
2023-03-29T12:20:12.424Z,99798.88
2023-03-29T12:22:41.364Z,99794.94
2023-03-29T12:25:18.419Z,99805.22
2023-03-29T12:28:00.179Z,99800.81
2023-03-29T12:30:45.586Z,99776.69
2023-03-29T12:33:35.987Z,99784.53
2023-03-29T12:36:19.015Z,99776.34
2023-03-29T12:38:48.204Z,99771.69
2023-03-29T12:41:19.071Z,99773.88
2023-03-29T12:43:48.111Z,99783.44
2023-03-29T12:46:18.748Z,99767.72
2023-03-29T12:48:50.313Z,99751.50
2023-03-29T12:51:22.874Z,99724.31
2023-03-29T12:53:53.270Z,99713.53
2023-03-29T12:56:23.747Z,99706.94
2023-03-29T12:58:56.166Z,99690.78
2023-03-29T13:01:29.862Z,99684.16
2023-03-29T13:04:14.714Z,99676.84
2023-03-29T13:07:04.067Z,99650.34
2023-03-29T13:09:36.704Z,99661.28
2023-03-29T13:12:27.060Z,99651.47
2023-03-29T13:14:57.720Z,99641.34
2023-03-29T13:17:37.064Z,99646.03
2023-03-29T13:20:21.793Z,99643.22
2023-03-29T13:23:04.208Z,99659.88
2023-03-29T13:25:54.134Z,99653.75
2023-03-29T13:28:27.654Z,99671.50
2023-03-29T13:31:00.916Z,99695.50
2023-03-29T13:33:48.354Z,99719.16
2023-03-29T13:36:24.317Z,99739.78
2023-03-29T13:38:55.337Z,99730.03
2023-03-29T13:41:32.203Z,99753.94
2023-03-29T13:44:00.884Z,99754.75
2023-03-29T13:46:40.139Z,99762.50
2023-03-29T13:49:16.391Z,99768.44
2023-03-29T13:52:01.226Z,99759.69
2023-03-29T13:54:33.917Z,99747.75
2023-03-29T13:57:07.719Z,99745.22
2023-03-29T13:59:43.385Z,99742.72
2023-03-29T14:02:18.592Z,99731.72
2023-03-29T14:04:49.357Z,99724.56
2023-03-29T14:07:26.046Z,99736.06
2023-03-29T14:09:58.641Z,99742.00
2023-03-29T14:12:31.152Z,99735.03
2023-03-29T14:15:03.528Z,99729.56
2023-03-29T14:17:31.994Z,99717.97
2023-03-29T14:20:01.548Z,99692.72
2023-03-29T14:22:33.525Z,99690.47
2023-03-29T14:25:09.558Z,99694.38
2023-03-29T14:27:37.814Z,99697.25
2023-03-29T14:30:21.623Z,99697.03
2023-03-29T14:32:51.253Z,99720.31
2023-03-29T14:35:19.185Z,99718.59
2023-03-29T14:37:48.948Z,99717.47
2023-03-29T14:40:21.068Z,99705.47
2023-03-29T14:42:50.886Z,99724.69
2023-03-29T14:45:23.260Z,99727.72
2023-03-29T14:47:51.895Z,99739.91
2023-03-29T14:50:23.099Z,99737.75
2023-03-29T14:52:52.627Z,99734.97
2023-03-29T14:55:23.908Z,99722.63
2023-03-29T14:57:54.237Z,99729.69
2023-03-29T15:00:30.040Z,99726.28
2023-03-29T15:03:00.483Z,99722.13
2023-03-29T15:05:35.652Z,99714.78
2023-03-29T15:08:03.996Z,99727.63
2023-03-29T15:10:35.882Z,99715.91
2023-03-29T15:13:05.530Z,99718.78
2023-03-29T15:15:35.645Z,99727.06
2023-03-29T15:18:04.918Z,99724.78
2023-03-29T15:20:35.367Z,99708.97
2023-03-29T15:23:05.382Z,99712.75
2023-03-29T15:25:39.294Z,99714.28
2023-03-29T15:28:07.596Z,99715.41
2023-03-29T15:30:37.577Z,99731.03
2023-03-29T15:33:23.015Z,99727.72
2023-03-29T15:35:53.449Z,99714.09
2023-03-29T15:38:27.641Z,99720.47
2023-03-29T15:41:02.725Z,99724.22
2023-03-29T15:43:30.977Z,99720.56
2023-03-29T15:45:59.033Z,99723.84
2023-03-29T15:48:28.809Z,99725.09
2023-03-29T15:50:59.030Z,99726.91
2023-03-29T15:53:29.270Z,99716.09
2023-03-29T15:56:01.343Z,99701.59
2023-03-29T15:58:33.636Z,99700.34
2023-03-29T16:01:12.327Z,99690.31
2023-03-29T16:03:41.581Z,99669.31
2023-03-29T16:06:12.298Z,99666.00
2023-03-29T16:08:41.398Z,99669.94
2023-03-29T16:11:09.212Z,99665.81
2023-03-29T16:13:38.356Z,99671.72
2023-03-29T16:16:07.325Z,99670.72
2023-03-29T16:18:35.785Z,99673.44
2023-03-29T16:21:03.754Z,99654.47
2023-03-29T16:23:31.649Z,99652.34
2023-03-29T16:25:59.286Z,99654.03
2023-03-29T16:28:28.135Z,99633.94
2023-03-29T16:30:57.186Z,99624.81
2023-03-29T16:33:24.891Z,99611.41
2023-03-29T16:35:53.016Z,99611.72
2023-03-29T16:38:21.761Z,99605.25
2023-03-29T16:40:49.365Z,99612.31
2023-03-29T16:43:18.711Z,99612.22
2023-03-29T16:45:46.542Z,99614.34
2023-03-29T16:48:19.680Z,99598.53
2023-03-29T16:50:49.474Z,99597.38
2023-03-29T16:53:18.233Z,99580.25
2023-03-29T16:55:46.347Z,99585.88
2023-03-29T16:58:15.442Z,99583.47
2023-03-29T17:00:46.343Z,99576.19
2023-03-29T17:03:17.359Z,99573.19
2023-03-29T17:05:48.320Z,99562.63
2023-03-29T17:08:16.430Z,99567.50
2023-03-29T17:10:44.662Z,99547.34
2023-03-29T17:13:12.971Z,99541.44
2023-03-29T17:15:41.026Z,99533.44
2023-03-29T17:18:09.118Z,99543.78
2023-03-29T17:20:40.967Z,99512.81
2023-03-29T17:23:09.417Z,99507.88
2023-03-29T17:25:37.235Z,99499.44
2023-03-29T17:28:05.745Z,99490.34
2023-03-29T17:30:35.058Z,99481.59
2023-03-29T17:33:03.461Z,99469.69
2023-03-29T17:35:33.280Z,99466.53
2023-03-29T17:38:02.993Z,99458.09
2023-03-29T17:40:30.831Z,99455.69
2023-03-29T17:42:58.567Z,99451.59
2023-03-29T17:45:26.508Z,99445.69
2023-03-29T17:47:54.322Z,99428.91
2023-03-29T17:50:22.368Z,99422.66
2023-03-29T17:52:50.295Z,99426.56
2023-03-29T17:55:21.078Z,99421.97
2023-03-29T17:57:49.827Z,99420.94
2023-03-29T18:00:17.813Z,99421.03
2023-03-29T18:02:45.918Z,99416.50
2023-03-29T18:05:13.859Z,99418.63
2023-03-29T18:07:41.688Z,99404.66
2023-03-29T18:10:10.240Z,99402.13
2023-03-29T18:12:39.401Z,99393.03
2023-03-29T18:15:08.419Z,99385.06
2023-03-29T18:17:36.771Z,99371.97
2023-03-29T18:20:11.628Z,99355.91
2023-03-29T18:22:40.068Z,99354.19
2023-03-29T18:25:09.526Z,99356.34
2023-03-29T18:27:39.099Z,99334.94
2023-03-29T18:30:09.366Z,99332.44
2023-03-29T18:32:37.649Z,99325.03
2023-03-29T18:35:06.306Z,99318.22
2023-03-29T18:37:34.191Z,99322.75
2023-03-29T18:40:02.040Z,99319.13
2023-03-29T18:42:29.854Z,99321.38
2023-03-29T18:44:59.289Z,99316.63
2023-03-29T18:47:27.174Z,99309.66
2023-03-29T18:49:55.148Z,99304.44
2023-03-29T18:52:23.342Z,99296.47
2023-03-29T18:54:51.431Z,99293.88
2023-03-29T18:57:19.328Z,99288.63
2023-03-29T18:59:47.196Z,99280.44
2023-03-29T19:02:16.792Z,99281.22
2023-03-29T19:04:44.738Z,99278.84
2023-03-29T19:07:12.683Z,99278.47
2023-03-29T19:09:41.791Z,99261.63
2023-03-29T19:12:10.129Z,99251.88
2023-03-29T19:14:38.343Z,99238.88
2023-03-29T19:17:06.295Z,99239.59
2023-03-29T19:19:35.887Z,99234.94
2023-03-29T19:22:03.738Z,99227.06
2023-03-29T19:24:31.557Z,99229.13
2023-03-29T19:26:59.358Z,99202.75
2023-03-29T19:29:27.285Z,99200.00
2023-03-29T19:31:56.823Z,99190.69
2023-03-29T19:34:24.657Z,99172.00
2023-03-29T19:36:55.192Z,99150.88
2023-03-29T19:39:25.268Z,99145.84
2023-03-29T19:41:52.997Z,99143.38
2023-03-29T19:44:22.153Z,99124.94
2023-03-29T19:46:49.931Z,99126.66
2023-03-29T19:49:17.752Z,99114.69
2023-03-29T19:51:46.064Z,99100.50
2023-03-29T19:54:17.262Z,99097.16
2023-03-29T19:56:45.202Z,99091.69
2023-03-29T19:59:14.896Z,99066.22
2023-03-29T20:01:50.641Z,99076.22
2023-03-29T20:04:18.899Z,99053.47
2023-03-29T20:06:46.987Z,99044.75
2023-03-29T20:09:16.559Z,99042.38
2023-03-29T20:11:44.889Z,99038.63
2023-03-29T20:14:12.775Z,99030.19
2023-03-29T20:16:41.888Z,99011.66
2023-03-29T20:19:10.822Z,98998.72
2023-03-29T20:21:38.535Z,99003.16
2023-03-29T20:24:08.730Z,98989.84
2023-03-29T20:26:38.279Z,98973.56
2023-03-29T20:29:08.143Z,98963.28
2023-03-29T20:31:35.957Z,98937.69
2023-03-29T20:34:03.870Z,98929.59
2023-03-29T20:36:31.980Z,98915.41
2023-03-29T20:39:01.263Z,98906.50
2023-03-29T20:41:29.137Z,98902.88
2023-03-29T20:43:59.794Z,98894.78
2023-03-29T20:46:33.522Z,98885.41
2023-03-29T20:49:01.702Z,98878.38
2023-03-29T20:51:31.927Z,98869.59
2023-03-29T20:54:04.367Z,98849.69
2023-03-29T20:56:33.854Z,98851.91
2023-03-29T20:59:04.063Z,98850.88
2023-03-29T21:01:31.988Z,98856.56
2023-03-29T21:03:59.858Z,98845.47
2023-03-29T21:06:28.199Z,98851.34
2023-03-29T21:08:55.894Z,98852.44
2023-03-29T21:11:23.629Z,98851.19
2023-03-29T21:13:52.798Z,98861.34
2023-03-29T21:16:22.199Z,98863.72
2023-03-29T21:18:50.131Z,98866.50
2023-03-29T21:21:17.998Z,98852.38
2023-03-29T21:23:45.770Z,98856.34
2023-03-29T21:26:13.525Z,98839.84
2023-03-29T21:28:42.334Z,98851.59
2023-03-29T21:31:10.642Z,98834.69
2023-03-29T21:33:39.724Z,98830.91
2023-03-29T21:36:08.276Z,98831.38
2023-03-29T21:38:38.578Z,98833.59
2023-03-29T21:41:06.869Z,98832.25
2023-03-29T21:43:34.630Z,98834.84
2023-03-29T21:46:02.510Z,98824.38
2023-03-29T21:48:30.219Z,98827.00
2023-03-29T21:50:59.385Z,98816.53
2023-03-29T21:53:27.285Z,98821.69
2023-03-29T21:55:55.494Z,98820.66
2023-03-29T21:58:23.344Z,98819.38
2023-03-29T22:00:51.486Z,98801.53
2023-03-29T22:03:19.470Z,98800.84
2023-03-29T22:05:56.914Z,98817.81
2023-03-29T22:08:26.960Z,98824.38
2023-03-29T22:10:56.858Z,98812.44
2023-03-29T22:13:26.109Z,98827.72
2023-03-29T22:15:59.100Z,98842.94
2023-03-29T22:18:28.067Z,98843.47
2023-03-29T22:20:55.977Z,98850.06
2023-03-29T22:23:24.895Z,98871.81
2023-03-29T22:25:54.382Z,98862.91
2023-03-29T22:28:22.251Z,98868.81
2023-03-29T22:30:49.952Z,98869.84
2023-03-29T22:33:17.730Z,98875.22
2023-03-29T22:35:45.634Z,98886.63
2023-03-29T22:38:13.365Z,98915.66
2023-03-29T22:40:41.516Z,98909.91
2023-03-29T22:43:11.001Z,98915.34
2023-03-29T22:45:38.752Z,98931.06
2023-03-29T22:48:07.363Z,98938.69
2023-03-29T22:50:35.201Z,98943.06
2023-03-29T22:53:02.966Z,98953.06
2023-03-29T22:55:30.750Z,98949.81
2023-03-29T22:57:58.479Z,98953.94
2023-03-29T23:00:27.676Z,98968.59
2023-03-29T23:02:55.431Z,98965.59
2023-03-29T23:05:23.598Z,98987.41
2023-03-29T23:07:51.493Z,98970.25
2023-03-29T23:10:19.564Z,98991.59
2023-03-29T23:12:49.094Z,98982.25
2023-03-29T23:15:18.075Z,99001.94
2023-03-29T23:17:47.411Z,99002.75
2023-03-29T23:20:16.142Z,99009.63
2023-03-29T23:22:43.699Z,99010.09
2023-03-29T23:25:11.924Z,99016.38
2023-03-29T23:27:39.649Z,99027.50
2023-03-29T23:30:08.832Z,99032.19
2023-03-29T23:32:36.621Z,99042.09
2023-03-29T23:35:06.515Z,99043.34
2023-03-29T23:37:34.240Z,99046.22
2023-03-29T23:40:01.989Z,99051.75
2023-03-29T23:42:30.835Z,99049.81
2023-03-29T23:44:58.478Z,99068.44
2023-03-29T23:47:28.009Z,99063.47
2023-03-29T23:49:55.744Z,99076.56
2023-03-29T23:52:24.908Z,99088.59
2023-03-29T23:54:52.711Z,99075.81
2023-03-29T23:57:21.378Z,99095.94
2023-03-29T23:59:52.725Z,99103.00
